Destinations Innsbruck Airport

Innsbruck Airport (LOWI / INN)

Flights to Innsbruck Airport

Flight number From ETE Dispatch
SPY-100 EHGG Groningen Airport Eelde 01:40

Flights from Innsbruck Airport

Flight number To ETE Dispatch
SPY-101 EHGG Groningen Airport Eelde
About

Innsbruck Airport facts

Innsbruck Airport is located in Innsbruck at an elevation of 581.3 meters or 1907 feet.

Currently, Speedy Airlines serves 2 flights to and from Innsbruck Airport.

Detailed airport info

Route map

Weather

Current weather

METAR

METAR

Metar data retrieved Sunday, 21 July 2024 at 19:55 UTC

LOWI 211920Z AUTO 11003KT 070V150 9999 BKN110 18/16 Q1015 NOSIG
Wind Temperature
3 kt 18c